sensor_id;sensor_type;location;lat;lon;timestamp;temperature;humidity
64499;SHT31;51087;55.718;21.122;2023-07-16T00:00:28;18.99;65.08
64499;SHT31;51087;55.718;21.122;2023-07-16T00:02:54;19.07;64.79
64499;SHT31;51087;55.718;21.122;2023-07-16T00:05:20;19.13;64.44
64499;SHT31;51087;55.718;21.122;2023-07-16T00:07:45;19.13;64.46
64499;SHT31;51087;55.718;21.122;2023-07-16T00:10:11;19.16;64.36
64499;SHT31;51087;55.718;21.122;2023-07-16T00:12:37;19.13;64.67
64499;SHT31;51087;55.718;21.122;2023-07-16T00:15:03;19.13;64.35
64499;SHT31;51087;55.718;21.122;2023-07-16T00:17:28;19.14;64.38
64499;SHT31;51087;55.718;21.122;2023-07-16T00:19:53;19.18;64.16
64499;SHT31;51087;55.718;21.122;2023-07-16T00:22:19;19.21;64.16
64499;SHT31;51087;55.718;21.122;2023-07-16T00:24:44;19.20;64.27
64499;SHT31;51087;55.718;21.122;2023-07-16T00:27:10;19.20;64.20
64499;SHT31;51087;55.718;21.122;2023-07-16T00:29:35;19.23;64.23
64499;SHT31;51087;55.718;21.122;2023-07-16T00:32:00;19.24;63.89
64499;SHT31;51087;55.718;21.122;2023-07-16T00:34:26;19.24;64.21
64499;SHT31;51087;55.718;21.122;2023-07-16T00:36:51;19.21;64.14
64499;SHT31;51087;55.718;21.122;2023-07-16T00:39:17;19.17;64.30
64499;SHT31;51087;55.718;21.122;2023-07-16T00:41:42;19.18;64.18
64499;SHT31;51087;55.718;21.122;2023-07-16T00:44:08;19.24;64.16
64499;SHT31;51087;55.718;21.122;2023-07-16T00:46:33;19.17;64.07
64499;SHT31;51087;55.718;21.122;2023-07-16T00:48:58;19.24;64.10
64499;SHT31;51087;55.718;21.122;2023-07-16T00:51:24;19.21;64.05
64499;SHT31;51087;55.718;21.122;2023-07-16T00:53:51;19.27;63.87
64499;SHT31;51087;55.718;21.122;2023-07-16T00:56:17;19.23;64.11
64499;SHT31;51087;55.718;21.122;2023-07-16T00:58:43;19.18;64.03
64499;SHT31;51087;55.718;21.122;2023-07-16T01:01:08;19.24;63.43
64499;SHT31;51087;55.718;21.122;2023-07-16T01:03:34;19.25;63.78
64499;SHT31;51087;55.718;21.122;2023-07-16T01:06:10;19.14;63.92
64499;SHT31;51087;55.718;21.122;2023-07-16T01:09:15;19.13;63.70
64499;SHT31;51087;55.718;21.122;2023-07-16T01:11:43;19.10;63.82
64499;SHT31;51087;55.718;21.122;2023-07-16T01:14:09;19.11;63.96
64499;SHT31;51087;55.718;21.122;2023-07-16T01:16:35;19.07;63.95
64499;SHT31;51087;55.718;21.122;2023-07-16T01:19:01;19.11;63.84
64499;SHT31;51087;55.718;21.122;2023-07-16T01:22:16;19.06;64.05
64499;SHT31;51087;55.718;21.122;2023-07-16T01:30:08;18.92;64.64
64499;SHT31;51087;55.718;21.122;2023-07-16T01:32:36;18.85;64.98
64499;SHT31;51087;55.718;21.122;2023-07-16T01:35:04;18.83;65.10
64499;SHT31;51087;55.718;21.122;2023-07-16T01:37:30;18.86;65.23
64499;SHT31;51087;55.718;21.122;2023-07-16T01:39:56;18.80;65.51
64499;SHT31;51087;55.718;21.122;2023-07-16T01:42:22;18.76;65.59
64499;SHT31;51087;55.718;21.122;2023-07-16T01:44:47;18.72;65.95
64499;SHT31;51087;55.718;21.122;2023-07-16T01:49:53;18.66;66.38
64499;SHT31;51087;55.718;21.122;2023-07-16T01:52:19;18.59;66.56
64499;SHT31;51087;55.718;21.122;2023-07-16T01:54:44;18.48;66.67
64499;SHT31;51087;55.718;21.122;2023-07-16T01:57:10;18.45;67.07
64499;SHT31;51087;55.718;21.122;2023-07-16T01:59:35;18.38;67.27
64499;SHT31;51087;55.718;21.122;2023-07-16T02:02:00;18.32;67.66
64499;SHT31;51087;55.718;21.122;2023-07-16T02:04:26;18.32;67.73
64499;SHT31;51087;55.718;21.122;2023-07-16T02:06:51;18.28;67.92
64499;SHT31;51087;55.718;21.122;2023-07-16T02:09:17;18.24;67.91
64499;SHT31;51087;55.718;21.122;2023-07-16T02:11:42;18.22;68.26
64499;SHT31;51087;55.718;21.122;2023-07-16T02:14:08;18.22;68.27
64499;SHT31;51087;55.718;21.122;2023-07-16T02:16:33;18.17;68.50
64499;SHT31;51087;55.718;21.122;2023-07-16T02:18:58;18.14;68.80
64499;SHT31;51087;55.718;21.122;2023-07-16T02:21:24;18.11;69.00
64499;SHT31;51087;55.718;21.122;2023-07-16T02:23:49;18.13;69.12
64499;SHT31;51087;55.718;21.122;2023-07-16T02:26:14;18.10;69.20
64499;SHT31;51087;55.718;21.122;2023-07-16T02:28:40;18.07;69.27
64499;SHT31;51087;55.718;21.122;2023-07-16T02:31:05;18.05;69.33
64499;SHT31;51087;55.718;21.122;2023-07-16T02:33:31;18.01;69.58
64499;SHT31;51087;55.718;21.122;2023-07-16T02:35:56;18.03;69.56
64499;SHT31;51087;55.718;21.122;2023-07-16T02:38:21;18.01;69.65
64499;SHT31;51087;55.718;21.122;2023-07-16T02:40:47;17.98;69.73
64499;SHT31;51087;55.718;21.122;2023-07-16T02:43:14;17.93;69.76
64499;SHT31;51087;55.718;21.122;2023-07-16T02:45:40;17.97;69.68
64499;SHT31;51087;55.718;21.122;2023-07-16T02:48:06;18.07;69.62
64499;SHT31;51087;55.718;21.122;2023-07-16T02:50:35;18.01;69.88
64499;SHT31;51087;55.718;21.122;2023-07-16T02:53:02;18.11;69.75
64499;SHT31;51087;55.718;21.122;2023-07-16T02:55:28;18.11;69.57
64499;SHT31;51087;55.718;21.122;2023-07-16T02:57:53;18.15;69.68
64499;SHT31;51087;55.718;21.122;2023-07-16T03:00:19;18.22;69.68
64499;SHT31;51087;55.718;21.122;2023-07-16T03:02:44;18.25;69.67
64499;SHT31;51087;55.718;21.122;2023-07-16T03:05:09;18.32;69.72
64499;SHT31;51087;55.718;21.122;2023-07-16T03:07:35;18.37;69.65
64499;SHT31;51087;55.718;21.122;2023-07-16T03:10:00;18.40;69.61
64499;SHT31;51087;55.718;21.122;2023-07-16T03:12:26;18.42;69.58
64499;SHT31;51087;55.718;21.122;2023-07-16T03:14:51;18.49;69.63
64499;SHT31;51087;55.718;21.122;2023-07-16T03:17:20;18.56;69.36
64499;SHT31;51087;55.718;21.122;2023-07-16T03:19:46;18.66;69.20
64499;SHT31;51087;55.718;21.122;2023-07-16T03:22:11;18.72;69.18
64499;SHT31;51087;55.718;21.122;2023-07-16T03:24:37;18.76;69.05
64499;SHT31;51087;55.718;21.122;2023-07-16T03:27:02;18.80;69.13
64499;SHT31;51087;55.718;21.122;2023-07-16T03:29:28;18.85;69.08
64499;SHT31;51087;55.718;21.122;2023-07-16T03:31:53;18.85;68.94
64499;SHT31;51087;55.718;21.122;2023-07-16T03:34:19;18.87;69.11
64499;SHT31;51087;55.718;21.122;2023-07-16T03:36:44;18.92;69.20
64499;SHT31;51087;55.718;21.122;2023-07-16T03:39:10;18.93;69.24
64499;SHT31;51087;55.718;21.122;2023-07-16T03:41:35;18.99;69.11
64499;SHT31;51087;55.718;21.122;2023-07-16T03:44:01;19.07;69.01
64499;SHT31;51087;55.718;21.122;2023-07-16T03:46:26;19.07;69.11
64499;SHT31;51087;55.718;21.122;2023-07-16T03:48:53;19.08;69.19
64499;SHT31;51087;55.718;21.122;2023-07-16T03:51:18;19.08;69.30
64499;SHT31;51087;55.718;21.122;2023-07-16T03:53:44;19.16;69.21
64499;SHT31;51087;55.718;21.122;2023-07-16T03:56:09;19.20;69.16
64499;SHT31;51087;55.718;21.122;2023-07-16T03:58:34;19.28;69.15
64499;SHT31;51087;55.718;21.122;2023-07-16T04:01:00;19.27;69.09
64499;SHT31;51087;55.718;21.122;2023-07-16T04:03:25;19.32;68.92
64499;SHT31;51087;55.718;21.122;2023-07-16T04:05:51;19.43;68.75
64499;SHT31;51087;55.718;21.122;2023-07-16T04:08:16;19.55;68.58
64499;SHT31;51087;55.718;21.122;2023-07-16T04:10:41;19.62;68.27
64499;SHT31;51087;55.718;21.122;2023-07-16T04:13:07;19.79;67.94
64499;SHT31;51087;55.718;21.122;2023-07-16T04:15:32;19.89;67.99
64499;SHT31;51087;55.718;21.122;2023-07-16T04:17:58;19.96;67.89
64499;SHT31;51087;55.718;21.122;2023-07-16T04:20:23;20.06;67.65
64499;SHT31;51087;55.718;21.122;2023-07-16T04:22:48;20.13;67.68
64499;SHT31;51087;55.718;21.122;2023-07-16T04:25:14;20.16;67.59
64499;SHT31;51087;55.718;21.122;2023-07-16T04:27:40;20.27;67.52
64499;SHT31;51087;55.718;21.122;2023-07-16T04:30:07;20.38;67.37
64499;SHT31;51087;55.718;21.122;2023-07-16T04:32:32;20.43;67.21
64499;SHT31;51087;55.718;21.122;2023-07-16T04:34:58;20.54;66.96
64499;SHT31;51087;55.718;21.122;2023-07-16T04:37:23;20.63;66.74
64499;SHT31;51087;55.718;21.122;2023-07-16T04:39:48;20.71;66.46
64499;SHT31;51087;55.718;21.122;2023-07-16T04:42:14;20.75;66.44
64499;SHT31;51087;55.718;21.122;2023-07-16T04:44:42;20.82;66.38
64499;SHT31;51087;55.718;21.122;2023-07-16T04:47:07;20.96;65.98
64499;SHT31;51087;55.718;21.122;2023-07-16T04:49:34;21.03;65.87
64499;SHT31;51087;55.718;21.122;2023-07-16T04:52:00;21.19;65.72
64499;SHT31;51087;55.718;21.122;2023-07-16T04:54:25;21.31;65.55
64499;SHT31;51087;55.718;21.122;2023-07-16T04:56:51;21.46;65.26
64499;SHT31;51087;55.718;21.122;2023-07-16T04:59:16;21.55;64.90
64499;SHT31;51087;55.718;21.122;2023-07-16T05:01:41;21.65;64.97
64499;SHT31;51087;55.718;21.122;2023-07-16T05:04:07;21.68;65.22
64499;SHT31;51087;55.718;21.122;2023-07-16T05:06:33;21.71;65.29
64499;SHT31;51087;55.718;21.122;2023-07-16T05:08:58;21.73;65.23
64499;SHT31;51087;55.718;21.122;2023-07-16T05:11:24;21.77;65.29
64499;SHT31;51087;55.718;21.122;2023-07-16T05:13:50;21.82;65.35
64499;SHT31;51087;55.718;21.122;2023-07-16T05:16:16;21.84;65.48
64499;SHT31;51087;55.718;21.122;2023-07-16T05:18:41;21.81;65.63
64499;SHT31;51087;55.718;21.122;2023-07-16T05:21:07;21.81;65.50
64499;SHT31;51087;55.718;21.122;2023-07-16T05:23:32;21.89;65.46
64499;SHT31;51087;55.718;21.122;2023-07-16T05:25:57;21.95;65.48
64499;SHT31;51087;55.718;21.122;2023-07-16T05:28:24;21.98;65.49
64499;SHT31;51087;55.718;21.122;2023-07-16T05:31:00;22.01;65.69
64499;SHT31;51087;55.718;21.122;2023-07-16T05:33:26;22.06;65.87
64499;SHT31;51087;55.718;21.122;2023-07-16T05:35:51;22.12;65.84
64499;SHT31;51087;55.718;21.122;2023-07-16T05:38:17;22.17;65.85
64499;SHT31;51087;55.718;21.122;2023-07-16T05:40:42;22.20;66.01
64499;SHT31;51087;55.718;21.122;2023-07-16T05:43:08;22.28;65.91
64499;SHT31;51087;55.718;21.122;2023-07-16T05:45:33;22.35;65.62
64499;SHT31;51087;55.718;21.122;2023-07-16T05:47:59;22.37;65.71
64499;SHT31;51087;55.718;21.122;2023-07-16T05:50:24;22.46;65.37
64499;SHT31;51087;55.718;21.122;2023-07-16T05:52:50;22.54;65.40
64499;SHT31;51087;55.718;21.122;2023-07-16T05:55:15;22.61;65.46
64499;SHT31;51087;55.718;21.122;2023-07-16T05:57:41;22.67;65.43
64499;SHT31;51087;55.718;21.122;2023-07-16T06:00:07;22.78;65.41
64499;SHT31;51087;55.718;21.122;2023-07-16T06:02:32;22.91;65.09
64499;SHT31;51087;55.718;21.122;2023-07-16T06:04:58;23.01;64.63
64499;SHT31;51087;55.718;21.122;2023-07-16T06:07:23;23.15;64.56
64499;SHT31;51087;55.718;21.122;2023-07-16T06:09:48;23.25;64.32
64499;SHT31;51087;55.718;21.122;2023-07-16T06:12:14;23.35;64.25
64499;SHT31;51087;55.718;21.122;2023-07-16T06:14:39;23.43;64.17
64499;SHT31;51087;55.718;21.122;2023-07-16T06:17:05;23.56;64.25
64499;SHT31;51087;55.718;21.122;2023-07-16T06:19:30;23.67;63.86
64499;SHT31;51087;55.718;21.122;2023-07-16T06:21:56;23.75;63.50
64499;SHT31;51087;55.718;21.122;2023-07-16T06:24:21;23.90;63.61
64499;SHT31;51087;55.718;21.122;2023-07-16T06:26:47;24.01;63.00
64499;SHT31;51087;55.718;21.122;2023-07-16T06:29:13;24.09;63.02
64499;SHT31;51087;55.718;21.122;2023-07-16T06:31:38;24.18;62.94
64499;SHT31;51087;55.718;21.122;2023-07-16T06:34:04;24.28;62.85
64499;SHT31;51087;55.718;21.122;2023-07-16T06:36:29;24.49;62.63
64499;SHT31;51087;55.718;21.122;2023-07-16T06:38:55;24.67;62.20
64499;SHT31;51087;55.718;21.122;2023-07-16T06:41:20;24.91;62.05
64499;SHT31;51087;55.718;21.122;2023-07-16T06:43:46;25.12;61.27
64499;SHT31;51087;55.718;21.122;2023-07-16T06:46:11;25.28;60.78
64499;SHT31;51087;55.718;21.122;2023-07-16T06:48:37;25.49;60.34
64499;SHT31;51087;55.718;21.122;2023-07-16T06:51:02;25.55;60.58
64499;SHT31;51087;55.718;21.122;2023-07-16T06:53:28;25.69;60.33
64499;SHT31;51087;55.718;21.122;2023-07-16T06:55:53;25.77;60.31
64499;SHT31;51087;55.718;21.122;2023-07-16T06:58:19;25.70;60.10
64499;SHT31;51087;55.718;21.122;2023-07-16T07:00:44;25.77;60.28
64499;SHT31;51087;55.718;21.122;2023-07-16T07:03:09;25.80;60.50
64499;SHT31;51087;55.718;21.122;2023-07-16T07:05:35;25.80;60.35
64499;SHT31;51087;55.718;21.122;2023-07-16T07:08:03;25.89;60.38
64499;SHT31;51087;55.718;21.122;2023-07-16T07:10:29;25.89;60.65
64499;SHT31;51087;55.718;21.122;2023-07-16T07:12:54;25.89;60.70
64499;SHT31;51087;55.718;21.122;2023-07-16T07:15:19;25.86;60.46
64499;SHT31;51087;55.718;21.122;2023-07-16T07:17:45;25.86;60.89
64499;SHT31;51087;55.718;21.122;2023-07-16T07:20:12;26.01;60.41
64499;SHT31;51087;55.718;21.122;2023-07-16T07:22:38;26.17;60.30
64499;SHT31;51087;55.718;21.122;2023-07-16T07:25:04;26.34;59.71
64499;SHT31;51087;55.718;21.122;2023-07-16T07:27:30;26.44;59.43
64499;SHT31;51087;55.718;21.122;2023-07-16T07:29:55;26.51;59.46
64499;SHT31;51087;55.718;21.122;2023-07-16T07:32:21;26.75;59.17
64499;SHT31;51087;55.718;21.122;2023-07-16T07:34:47;27.00;58.68
64499;SHT31;51087;55.718;21.122;2023-07-16T07:37:13;27.37;58.15
64499;SHT31;51087;55.718;21.122;2023-07-16T07:39:38;27.59;57.45
64499;SHT31;51087;55.718;21.122;2023-07-16T07:42:04;27.63;57.44
64499;SHT31;51087;55.718;21.122;2023-07-16T07:44:29;27.65;57.13
64499;SHT31;51087;55.718;21.122;2023-07-16T07:46:55;27.82;57.20
64499;SHT31;51087;55.718;21.122;2023-07-16T07:49:20;27.90;57.18
64499;SHT31;51087;55.718;21.122;2023-07-16T07:51:46;27.92;57.13
64499;SHT31;51087;55.718;21.122;2023-07-16T07:54:14;27.95;56.97
64499;SHT31;51087;55.718;21.122;2023-07-16T07:56:39;27.90;57.06
64499;SHT31;51087;55.718;21.122;2023-07-16T07:59:05;28.09;57.15
64499;SHT31;51087;55.718;21.122;2023-07-16T08:01:30;28.14;56.97
64499;SHT31;51087;55.718;21.122;2023-07-16T08:03:56;28.26;56.71
64499;SHT31;51087;55.718;21.122;2023-07-16T08:06:21;28.37;56.66
64499;SHT31;51087;55.718;21.122;2023-07-16T08:08:46;28.47;56.50
64499;SHT31;51087;55.718;21.122;2023-07-16T08:11:12;28.72;56.39
64499;SHT31;51087;55.718;21.122;2023-07-16T08:13:37;28.65;56.20
64499;SHT31;51087;55.718;21.122;2023-07-16T08:16:03;28.67;56.03
64499;SHT31;51087;55.718;21.122;2023-07-16T08:18:29;28.91;56.10
64499;SHT31;51087;55.718;21.122;2023-07-16T08:20:54;28.96;55.81
64499;SHT31;51087;55.718;21.122;2023-07-16T08:23:19;29.02;55.74
64499;SHT31;51087;55.718;21.122;2023-07-16T08:25:45;28.82;55.63
64499;SHT31;51087;55.718;21.122;2023-07-16T08:28:11;28.98;55.83
64499;SHT31;51087;55.718;21.122;2023-07-16T08:30:37;29.06;55.93
64499;SHT31;51087;55.718;21.122;2023-07-16T08:33:03;29.05;55.52
64499;SHT31;51087;55.718;21.122;2023-07-16T08:35:28;28.99;55.87
64499;SHT31;51087;55.718;21.122;2023-07-16T08:37:53;29.13;56.02
64499;SHT31;51087;55.718;21.122;2023-07-16T08:40:19;29.09;55.98
64499;SHT31;51087;55.718;21.122;2023-07-16T08:42:45;29.19;56.06
64499;SHT31;51087;55.718;21.122;2023-07-16T08:45:11;29.51;56.28
64499;SHT31;51087;55.718;21.122;2023-07-16T08:47:37;29.58;55.61
64499;SHT31;51087;55.718;21.122;2023-07-16T08:50:03;29.81;55.18
64499;SHT31;51087;55.718;21.122;2023-07-16T08:52:29;30.04;54.99
64499;SHT31;51087;55.718;21.122;2023-07-16T08:54:55;30.32;54.19
64499;SHT31;51087;55.718;21.122;2023-07-16T08:57:22;30.28;53.68
64499;SHT31;51087;55.718;21.122;2023-07-16T08:59:48;30.59;53.56
64499;SHT31;51087;55.718;21.122;2023-07-16T09:02:19;30.76;53.32
64499;SHT31;51087;55.718;21.122;2023-07-16T09:04:47;30.68;53.25
64499;SHT31;51087;55.718;21.122;2023-07-16T09:07:14;30.61;52.94
64499;SHT31;51087;55.718;21.122;2023-07-16T09:09:39;30.71;53.43
64499;SHT31;51087;55.718;21.122;2023-07-16T09:12:05;30.71;53.17
64499;SHT31;51087;55.718;21.122;2023-07-16T09:14:31;30.67;53.34
64499;SHT31;51087;55.718;21.122;2023-07-16T09:16:56;30.60;53.44
64499;SHT31;51087;55.718;21.122;2023-07-16T09:19:22;30.30;53.87
64499;SHT31;51087;55.718;21.122;2023-07-16T09:21:51;30.22;54.41
64499;SHT31;51087;55.718;21.122;2023-07-16T09:24:18;30.23;54.84
64499;SHT31;51087;55.718;21.122;2023-07-16T09:26:52;30.49;54.14
64499;SHT31;51087;55.718;21.122;2023-07-16T09:29:17;31.07;53.34
64499;SHT31;51087;55.718;21.122;2023-07-16T09:31:56;31.79;51.89
64499;SHT31;51087;55.718;21.122;2023-07-16T09:34:22;32.25;51.43
64499;SHT31;51087;55.718;21.122;2023-07-16T09:36:48;32.18;52.23
64499;SHT31;51087;55.718;21.122;2023-07-16T09:39:17;32.20;50.52
64499;SHT31;51087;55.718;21.122;2023-07-16T09:41:45;32.13;50.80
64499;SHT31;51087;55.718;21.122;2023-07-16T09:44:11;31.81;51.20
64499;SHT31;51087;55.718;21.122;2023-07-16T09:46:37;31.76;51.43
64499;SHT31;51087;55.718;21.122;2023-07-16T09:49:02;31.86;51.49
64499;SHT31;51087;55.718;21.122;2023-07-16T09:51:30;31.62;52.11
64499;SHT31;51087;55.718;21.122;2023-07-16T09:54:00;31.47;53.11
64499;SHT31;51087;55.718;21.122;2023-07-16T09:56:32;31.79;53.27
64499;SHT31;51087;55.718;21.122;2023-07-16T09:58:59;31.70;53.00
64499;SHT31;51087;55.718;21.122;2023-07-16T10:01:26;32.03;52.25
64499;SHT31;51087;55.718;21.122;2023-07-16T10:03:52;31.83;53.04
64499;SHT31;51087;55.718;21.122;2023-07-16T10:06:17;32.35;52.06
64499;SHT31;51087;55.718;21.122;2023-07-16T10:08:49;32.72;51.76
64499;SHT31;51087;55.718;21.122;2023-07-16T10:11:16;33.34;50.82
64499;SHT31;51087;55.718;21.122;2023-07-16T10:13:42;33.48;50.58
64499;SHT31;51087;55.718;21.122;2023-07-16T10:16:08;33.66;50.95
64499;SHT31;51087;55.718;21.122;2023-07-16T10:18:35;33.06;51.32
64499;SHT31;51087;55.718;21.122;2023-07-16T10:21:08;33.83;50.89
64499;SHT31;51087;55.718;21.122;2023-07-16T10:23:41;34.47;49.25
64499;SHT31;51087;55.718;21.122;2023-07-16T10:26:10;35.09;48.88
64499;SHT31;51087;55.718;21.122;2023-07-16T10:28:37;35.19;48.75
64499;SHT31;51087;55.718;21.122;2023-07-16T10:31:03;33.99;51.19
64499;SHT31;51087;55.718;21.122;2023-07-16T10:33:28;34.34;50.32
64499;SHT31;51087;55.718;21.122;2023-07-16T10:35:57;32.70;54.15
64499;SHT31;51087;55.718;21.122;2023-07-16T10:38:23;31.66;57.30
64499;SHT31;51087;55.718;21.122;2023-07-16T10:40:49;29.94;62.01
64499;SHT31;51087;55.718;21.122;2023-07-16T10:43:14;28.74;64.43
64499;SHT31;51087;55.718;21.122;2023-07-16T10:45:40;28.36;66.15
64499;SHT31;51087;55.718;21.122;2023-07-16T10:48:06;29.03;64.34
64499;SHT31;51087;55.718;21.122;2023-07-16T10:50:33;27.71;66.85
64499;SHT31;51087;55.718;21.122;2023-07-16T10:53:02;27.96;66.45
64499;SHT31;51087;55.718;21.122;2023-07-16T10:55:29;28.34;64.93
64499;SHT31;51087;55.718;21.122;2023-07-16T10:57:55;28.41;64.53
64499;SHT31;51087;55.718;21.122;2023-07-16T11:00:22;27.78;66.03
64499;SHT31;51087;55.718;21.122;2023-07-16T11:02:50;27.65;66.29
64499;SHT31;51087;55.718;21.122;2023-07-16T11:05:17;28.05;63.95
64499;SHT31;51087;55.718;21.122;2023-07-16T11:07:47;27.62;65.17
64499;SHT31;51087;55.718;21.122;2023-07-16T11:10:15;27.38;66.16
64499;SHT31;51087;55.718;21.122;2023-07-16T11:12:41;27.14;66.98
64499;SHT31;51087;55.718;21.122;2023-07-16T11:15:07;26.96;67.01
64499;SHT31;51087;55.718;21.122;2023-07-16T11:17:33;26.79;66.74
64499;SHT31;51087;55.718;21.122;2023-07-16T11:20:00;26.95;66.74
64499;SHT31;51087;55.718;21.122;2023-07-16T11:22:26;26.62;68.26
64499;SHT31;51087;55.718;21.122;2023-07-16T11:24:52;26.83;68.09
64499;SHT31;51087;55.718;21.122;2023-07-16T11:32:12;26.58;69.01
64499;SHT31;51087;55.718;21.122;2023-07-16T11:34:38;26.42;69.23
64499;SHT31;51087;55.718;21.122;2023-07-16T11:37:16;26.63;68.98
64499;SHT31;51087;55.718;21.122;2023-07-16T11:39:42;26.21;70.09
64499;SHT31;51087;55.718;21.122;2023-07-16T11:42:07;26.05;70.40
64499;SHT31;51087;55.718;21.122;2023-07-16T11:44:36;25.72;71.06
64499;SHT31;51087;55.718;21.122;2023-07-16T11:47:03;26.07;70.60
64499;SHT31;51087;55.718;21.122;2023-07-16T11:49:28;25.90;70.84
64499;SHT31;51087;55.718;21.122;2023-07-16T11:51:54;25.77;71.19
64499;SHT31;51087;55.718;21.122;2023-07-16T11:54:19;26.00;70.53
64499;SHT31;51087;55.718;21.122;2023-07-16T11:56:44;26.65;69.07
64499;SHT31;51087;55.718;21.122;2023-07-16T11:59:12;26.63;68.33
64499;SHT31;51087;55.718;21.122;2023-07-16T12:01:38;27.02;68.06
64499;SHT31;51087;55.718;21.122;2023-07-16T12:04:05;27.00;67.79
64499;SHT31;51087;55.718;21.122;2023-07-16T12:06:30;26.73;69.00
64499;SHT31;51087;55.718;21.122;2023-07-16T12:08:56;26.53;68.89
64499;SHT31;51087;55.718;21.122;2023-07-16T12:11:21;26.25;69.49
64499;SHT31;51087;55.718;21.122;2023-07-16T12:13:47;26.37;68.45
64499;SHT31;51087;55.718;21.122;2023-07-16T12:16:13;27.22;66.26
64499;SHT31;51087;55.718;21.122;2023-07-16T12:18:40;27.02;66.61
64499;SHT31;51087;55.718;21.122;2023-07-16T12:21:08;26.99;66.24
64499;SHT31;51087;55.718;21.122;2023-07-16T12:23:33;27.14;65.76
64499;SHT31;51087;55.718;21.122;2023-07-16T12:25:59;27.62;65.33
64499;SHT31;51087;55.718;21.122;2023-07-16T12:28:24;27.30;66.32
64499;SHT31;51087;55.718;21.122;2023-07-16T12:30:50;25.67;70.51
64499;SHT31;51087;55.718;21.122;2023-07-16T12:33:15;25.22;72.06
64499;SHT31;51087;55.718;21.122;2023-07-16T12:35:40;24.53;74.19
64499;SHT31;51087;55.718;21.122;2023-07-16T12:38:06;24.30;75.10
64499;SHT31;51087;55.718;21.122;2023-07-16T12:40:31;24.17;75.83
64499;SHT31;51087;55.718;21.122;2023-07-16T12:42:57;24.09;75.86
64499;SHT31;51087;55.718;21.122;2023-07-16T12:45:23;24.08;76.06
64499;SHT31;51087;55.718;21.122;2023-07-16T12:47:49;24.21;75.50
64499;SHT31;51087;55.718;21.122;2023-07-16T12:50:15;24.28;75.15
64499;SHT31;51087;55.718;21.122;2023-07-16T12:52:42;24.01;75.85
64499;SHT31;51087;55.718;21.122;2023-07-16T12:55:07;23.42;78.81
64499;SHT31;51087;55.718;21.122;2023-07-16T12:57:33;22.84;81.32
64499;SHT31;51087;55.718;21.122;2023-07-16T12:59:58;22.75;81.90
64499;SHT31;51087;55.718;21.122;2023-07-16T13:02:24;22.78;81.88
64499;SHT31;51087;55.718;21.122;2023-07-16T13:04:51;22.74;81.71
64499;SHT31;51087;55.718;21.122;2023-07-16T13:07:17;22.78;81.66
64499;SHT31;51087;55.718;21.122;2023-07-16T13:09:42;22.99;80.76
64499;SHT31;51087;55.718;21.122;2023-07-16T13:12:12;23.16;80.50
64499;SHT31;51087;55.718;21.122;2023-07-16T13:14:37;23.14;80.56
64499;SHT31;51087;55.718;21.122;2023-07-16T13:17:03;22.97;80.77
64499;SHT31;51087;55.718;21.122;2023-07-16T13:19:30;22.91;80.94
64499;SHT31;51087;55.718;21.122;2023-07-16T13:21:55;22.94;80.83
64499;SHT31;51087;55.718;21.122;2023-07-16T13:24:21;22.88;81.43
64499;SHT31;51087;55.718;21.122;2023-07-16T13:26:46;23.04;80.74
64499;SHT31;51087;55.718;21.122;2023-07-16T13:29:12;23.09;80.63
64499;SHT31;51087;55.718;21.122;2023-07-16T13:31:39;23.09;80.29
64499;SHT31;51087;55.718;21.122;2023-07-16T13:34:05;23.12;79.70
64499;SHT31;51087;55.718;21.122;2023-07-16T13:36:30;23.39;79.31
64499;SHT31;51087;55.718;21.122;2023-07-16T13:38:56;23.60;78.34
64499;SHT31;51087;55.718;21.122;2023-07-16T13:41:21;23.66;77.89
64499;SHT31;51087;55.718;21.122;2023-07-16T13:43:48;23.52;77.73
64499;SHT31;51087;55.718;21.122;2023-07-16T13:46:14;23.69;77.52
64499;SHT31;51087;55.718;21.122;2023-07-16T13:48:39;23.73;77.35
64499;SHT31;51087;55.718;21.122;2023-07-16T13:51:05;23.59;76.36
64499;SHT31;51087;55.718;21.122;2023-07-16T13:53:30;23.45;76.87
64499;SHT31;51087;55.718;21.122;2023-07-16T13:55:55;23.09;78.20
64499;SHT31;51087;55.718;21.122;2023-07-16T13:58:21;22.85;79.34
64499;SHT31;51087;55.718;21.122;2023-07-16T14:00:46;22.74;80.02
64499;SHT31;51087;55.718;21.122;2023-07-16T14:03:11;22.53;80.82
64499;SHT31;51087;55.718;21.122;2023-07-16T14:05:37;22.32;82.47
64499;SHT31;51087;55.718;21.122;2023-07-16T14:08:07;21.99;84.53
64499;SHT31;51087;55.718;21.122;2023-07-16T14:10:33;21.95;86.05
64499;SHT31;51087;55.718;21.122;2023-07-16T14:13:00;22.08;85.31
64499;SHT31;51087;55.718;21.122;2023-07-16T14:15:25;21.78;88.11
64499;SHT31;51087;55.718;21.122;2023-07-16T14:17:51;21.58;88.06
64499;SHT31;51087;55.718;21.122;2023-07-16T14:20:16;21.29;88.49
64499;SHT31;51087;55.718;21.122;2023-07-16T14:22:42;21.20;89.15
64499;SHT31;51087;55.718;21.122;2023-07-16T14:25:07;21.14;89.84
64499;SHT31;51087;55.718;21.122;2023-07-16T14:27:34;21.07;89.04
64499;SHT31;51087;55.718;21.122;2023-07-16T14:30:00;21.14;89.72
64499;SHT31;51087;55.718;21.122;2023-07-16T14:32:25;21.06;89.03
64499;SHT31;51087;55.718;21.122;2023-07-16T14:34:51;21.09;89.22
64499;SHT31;51087;55.718;21.122;2023-07-16T14:37:16;21.14;89.36
64499;SHT31;51087;55.718;21.122;2023-07-16T14:39:42;21.13;89.10
64499;SHT31;51087;55.718;21.122;2023-07-16T14:42:08;21.09;88.75
64499;SHT31;51087;55.718;21.122;2023-07-16T14:44:34;21.14;89.16
64499;SHT31;51087;55.718;21.122;2023-07-16T14:47:00;21.13;89.33
64499;SHT31;51087;55.718;21.122;2023-07-16T14:49:25;21.09;88.28
64499;SHT31;51087;55.718;21.122;2023-07-16T14:51:51;21.04;88.49
64499;SHT31;51087;55.718;21.122;2023-07-16T14:54:17;20.95;88.69
64499;SHT31;51087;55.718;21.122;2023-07-16T14:56:44;20.96;88.81
64499;SHT31;51087;55.718;21.122;2023-07-16T14:59:10;21.06;88.47
64499;SHT31;51087;55.718;21.122;2023-07-16T15:01:35;21.10;88.23
64499;SHT31;51087;55.718;21.122;2023-07-16T15:04:00;21.07;87.94
64499;SHT31;51087;55.718;21.122;2023-07-16T15:06:26;21.13;88.05
64499;SHT31;51087;55.718;21.122;2023-07-16T15:08:52;21.22;87.36
64499;SHT31;51087;55.718;21.122;2023-07-16T15:11:18;21.50;87.50
64499;SHT31;51087;55.718;21.122;2023-07-16T15:13:44;22.32;85.54
64499;SHT31;51087;55.718;21.122;2023-07-16T15:16:09;23.33;82.62
64499;SHT31;51087;55.718;21.122;2023-07-16T15:18:37;23.56;80.62
64499;SHT31;51087;55.718;21.122;2023-07-16T15:21:03;23.57;81.28